createdAt,value
2022-08-18T00:00:15.312Z,12.60
2022-08-18T00:01:16.642Z,13.70
2022-08-18T00:02:15.277Z,13.40
2022-08-18T00:03:53.095Z,13.20
2022-08-18T00:04:35.789Z,12.80
2022-08-18T00:05:16.083Z,12.90
2022-08-18T00:06:15.051Z,12.60
2022-08-18T00:07:15.063Z,12.90
2022-08-18T00:08:15.045Z,12.40
2022-08-18T00:09:15.050Z,13.60
2022-08-18T00:10:17.959Z,13.90
2022-08-18T00:11:15.031Z,13.60
2022-08-18T00:12:14.992Z,13.30
2022-08-18T00:13:15.001Z,13.60
2022-08-18T00:14:21.430Z,12.40
2022-08-18T00:15:15.975Z,13.20
2022-08-18T00:16:14.968Z,13.70
2022-08-18T00:17:14.952Z,13.50
2022-08-18T00:18:14.931Z,13.60
2022-08-18T00:19:14.934Z,13.10
2022-08-18T00:20:14.912Z,12.30
2022-08-18T00:21:14.911Z,11.90
2022-08-18T00:22:15.649Z,12.20
2022-08-18T00:23:14.897Z,11.50
2022-08-18T00:24:14.862Z,13.20
2022-08-18T00:25:14.863Z,13.10
2022-08-18T00:26:14.833Z,12.80
2022-08-18T00:27:14.852Z,13.40
2022-08-18T00:28:14.823Z,13.60
2022-08-18T00:29:14.822Z,14.00
2022-08-18T00:30:14.794Z,13.80
2022-08-18T00:31:14.815Z,14.40
2022-08-18T00:32:14.791Z,13.80
2022-08-18T00:33:14.790Z,13.60
2022-08-18T00:34:14.763Z,13.00
2022-08-18T00:35:14.753Z,14.00
2022-08-18T00:36:14.723Z,13.70
2022-08-18T00:37:14.732Z,13.80
2022-08-18T00:38:24.800Z,13.80
2022-08-18T00:39:15.708Z,13.60
2022-08-18T00:40:14.816Z,13.80
2022-08-18T00:41:14.684Z,13.80
2022-08-18T00:42:27.609Z,14.20
2022-08-18T00:43:15.663Z,13.70
2022-08-18T00:44:14.644Z,14.60
2022-08-18T00:45:14.655Z,14.70
2022-08-18T00:46:14.624Z,15.50
2022-08-18T00:47:14.614Z,14.70
2022-08-18T00:48:15.586Z,15.30
2022-08-18T00:49:14.585Z,14.10
2022-08-18T00:50:15.508Z,13.80
2022-08-18T00:51:14.599Z,13.20
2022-08-18T00:52:14.563Z,11.80
2022-08-18T00:53:14.534Z,13.60
2022-08-18T00:54:14.548Z,13.70
2022-08-18T00:55:14.514Z,13.80
2022-08-18T00:56:14.515Z,15.20
2022-08-18T00:57:14.585Z,14.00
2022-08-18T00:58:14.492Z,14.00
2022-08-18T00:59:14.464Z,13.30
2022-08-18T01:00:14.462Z,13.00
2022-08-18T01:01:14.457Z,13.30
2022-08-18T01:02:14.443Z,14.10
2022-08-18T01:03:14.419Z,13.50
2022-08-18T01:04:14.431Z,13.30
2022-08-18T01:05:14.392Z,13.20
2022-08-18T01:06:14.477Z,13.30
2022-08-18T01:07:14.366Z,13.90
2022-08-18T01:08:14.413Z,13.30
2022-08-18T01:09:14.356Z,12.30
2022-08-18T01:10:14.366Z,13.40
2022-08-18T01:11:14.326Z,13.50
2022-08-18T01:12:44.165Z,13.70
2022-08-18T01:13:15.307Z,13.00
2022-08-18T01:14:14.313Z,12.90
2022-08-18T01:15:28.205Z,13.00
2022-08-18T01:16:15.287Z,13.60
2022-08-18T01:17:14.254Z,13.50
2022-08-18T01:18:14.254Z,14.50
2022-08-18T01:19:14.235Z,13.60
2022-08-18T01:20:14.227Z,14.00
2022-08-18T01:21:14.229Z,13.40
2022-08-18T01:22:14.233Z,13.60
2022-08-18T01:23:14.297Z,13.90
2022-08-18T01:24:17.421Z,14.70
2022-08-18T01:25:15.165Z,15.00
2022-08-18T01:26:14.174Z,14.80
2022-08-18T01:27:14.154Z,14.90
2022-08-18T01:28:14.165Z,15.10
2022-08-18T01:29:18.778Z,15.10
2022-08-18T01:30:15.125Z,15.70
2022-08-18T01:31:14.095Z,15.80
2022-08-18T01:32:14.095Z,15.10
2022-08-18T01:33:14.858Z,14.60
2022-08-18T01:34:14.882Z,13.90
2022-08-18T01:35:14.065Z,13.00
2022-08-18T01:36:14.059Z,13.20
2022-08-18T01:37:14.024Z,14.40
2022-08-18T01:38:14.037Z,14.00
2022-08-18T01:39:14.515Z,15.00
2022-08-18T01:41:23.717Z,15.20
2022-08-18T01:41:28.764Z,15.00
2022-08-18T01:42:15.052Z,14.40
2022-08-18T01:43:14.135Z,14.30
2022-08-18T01:44:13.966Z,14.00
2022-08-18T01:45:13.955Z,14.20
2022-08-18T01:46:13.954Z,15.10
2022-08-18T01:47:13.915Z,14.10
2022-08-18T01:48:13.969Z,14.60
2022-08-18T01:49:13.896Z,14.30
2022-08-18T01:50:14.774Z,13.20
2022-08-18T01:51:13.875Z,13.30
2022-08-18T01:52:13.890Z,13.80
2022-08-18T01:53:14.737Z,13.60
2022-08-18T01:54:14.004Z,13.90
2022-08-18T01:55:14.553Z,14.00
2022-08-18T01:56:13.841Z,14.80
2022-08-18T01:57:13.806Z,15.40
2022-08-18T01:58:13.805Z,15.30
2022-08-18T01:59:13.786Z,14.70
2022-08-18T02:00:13.785Z,14.80
2022-08-18T02:01:13.792Z,15.10
2022-08-18T02:02:18.418Z,16.10
2022-08-18T02:03:13.746Z,15.60
2022-08-18T02:04:33.795Z,15.10
2022-08-18T02:05:14.715Z,15.30
2022-08-18T02:06:14.682Z,15.00
2022-08-18T02:07:14.406Z,15.10
2022-08-18T02:08:13.706Z,14.20
2022-08-18T02:09:13.665Z,14.60
2022-08-18T02:10:16.450Z,14.40
2022-08-18T02:11:13.635Z,13.70
2022-08-18T02:12:14.034Z,14.50
2022-08-18T02:13:13.621Z,15.20
2022-08-18T02:14:14.507Z,14.20
2022-08-18T02:15:13.599Z,14.50
2022-08-18T02:16:14.155Z,14.40
2022-08-18T02:17:14.477Z,13.60
2022-08-18T02:18:14.277Z,14.80
2022-08-18T02:19:14.538Z,15.70
2022-08-18T02:20:13.544Z,14.80
2022-08-18T02:21:14.238Z,14.60
2022-08-18T02:22:15.278Z,14.10
2022-08-18T02:23:14.407Z,14.10
2022-08-18T02:24:13.617Z,15.50
2022-08-18T02:25:13.600Z,15.50
2022-08-18T02:26:13.488Z,15.90
2022-08-18T02:27:14.154Z,15.80
2022-08-18T02:28:13.529Z,15.60
2022-08-18T02:29:13.620Z,16.30
2022-08-18T02:30:13.431Z,15.00
2022-08-18T02:31:13.409Z,15.30
2022-08-18T02:32:13.408Z,16.70
2022-08-18T02:33:13.440Z,16.30
2022-08-18T02:34:14.127Z,15.40
2022-08-18T02:35:13.456Z,15.10
2022-08-18T02:36:13.357Z,15.40
2022-08-18T02:37:15.636Z,12.90
2022-08-18T02:38:13.996Z,15.00
2022-08-18T02:39:14.001Z,15.80
2022-08-18T02:40:13.309Z,16.20
2022-08-18T02:41:13.299Z,17.00
2022-08-18T02:42:13.290Z,15.70
2022-08-18T02:43:14.028Z,15.40
2022-08-18T02:44:13.258Z,15.10
2022-08-18T02:45:13.959Z,16.70
2022-08-18T02:46:13.246Z,17.80
2022-08-18T02:47:13.215Z,18.20
2022-08-18T02:48:13.207Z,17.60
2022-08-18T02:49:13.198Z,16.40
2022-08-18T02:50:13.195Z,19.00
2022-08-18T02:51:13.896Z,17.50
2022-08-18T02:52:13.191Z,16.30
2022-08-18T02:53:13.136Z,18.20
2022-08-18T02:54:13.151Z,18.10
2022-08-18T02:55:13.127Z,16.90
2022-08-18T02:56:13.157Z,16.30
2022-08-18T02:57:13.101Z,17.10
2022-08-18T02:58:13.100Z,16.10
2022-08-18T02:59:13.134Z,15.70
2022-08-18T03:00:13.116Z,16.80
2022-08-18T03:01:13.099Z,16.10
2022-08-18T03:02:13.999Z,14.90
2022-08-18T03:03:13.034Z,15.20
2022-08-18T03:04:13.027Z,16.80
2022-08-18T03:05:14.689Z,17.60
2022-08-18T03:06:13.008Z,17.70
2022-08-18T03:07:13.767Z,19.40
2022-08-18T03:08:13.067Z,18.50
2022-08-18T03:09:12.947Z,19.00
2022-08-18T03:10:31.717Z,18.20
2022-08-18T03:11:13.921Z,18.00
2022-08-18T03:12:12.962Z,17.80
2022-08-18T03:13:12.919Z,18.20
2022-08-18T03:14:13.611Z,18.60
2022-08-18T03:15:13.635Z,19.50
2022-08-18T03:16:13.677Z,18.10
2022-08-18T03:17:12.847Z,19.10
2022-08-18T03:18:13.738Z,18.40
2022-08-18T03:19:12.842Z,18.90
2022-08-18T03:20:12.826Z,17.10
2022-08-18T03:21:12.807Z,17.00
2022-08-18T03:22:27.451Z,17.10
2022-08-18T03:25:24.964Z,16.00
2022-08-18T03:26:24.924Z,16.30
2022-08-18T03:27:24.934Z,16.20
2022-08-18T03:28:24.903Z,17.60
2022-08-18T03:29:30.967Z,17.90
2022-08-18T03:30:25.914Z,16.90
2022-08-18T03:31:24.873Z,17.30
2022-08-18T03:32:24.853Z,18.00
2022-08-18T03:33:24.853Z,17.00
2022-08-18T03:34:24.816Z,17.00
2022-08-18T03:35:24.824Z,18.10
2022-08-18T03:36:24.824Z,16.60
2022-08-18T03:37:24.934Z,16.00
2022-08-18T03:38:24.766Z,16.60
2022-08-18T03:39:24.786Z,15.70
2022-08-18T03:40:25.564Z,16.70
2022-08-18T03:41:43.605Z,16.50
2022-08-18T03:42:26.538Z,17.10
2022-08-18T03:43:50.836Z,17.50
2022-08-18T03:44:25.757Z,17.90
2022-08-18T03:45:24.708Z,17.40
2022-08-18T03:46:25.503Z,17.20
2022-08-18T03:47:25.418Z,18.00
2022-08-18T03:48:25.456Z,19.20
2022-08-18T03:49:24.920Z,17.80
2022-08-18T03:50:25.541Z,18.10
2022-08-18T03:51:25.414Z,17.90
2022-08-18T03:52:24.646Z,17.30
2022-08-18T03:53:25.491Z,17.10
2022-08-18T03:54:24.634Z,17.30
2022-08-18T03:55:24.593Z,17.80
2022-08-18T03:56:24.567Z,17.70
2022-08-18T03:57:24.864Z,17.00
2022-08-18T03:58:25.383Z,18.30
2022-08-18T03:59:25.425Z,17.40
2022-08-18T04:00:25.328Z,18.40
2022-08-18T04:01:27.286Z,19.80
2022-08-18T04:02:24.514Z,18.70
2022-08-18T04:03:24.805Z,17.60
2022-08-18T04:04:25.437Z,17.70
2022-08-18T04:05:24.618Z,17.70
2022-08-18T04:06:30.229Z,18.20
2022-08-18T04:07:26.325Z,17.30
2022-08-18T04:08:25.196Z,17.50
2022-08-18T04:09:24.448Z,16.80
2022-08-18T04:10:24.415Z,17.20
2022-08-18T04:11:24.434Z,18.30
2022-08-18T04:12:24.396Z,16.80
2022-08-18T04:13:24.975Z,17.50
2022-08-18T04:14:24.383Z,19.40
2022-08-18T04:15:24.783Z,18.20
2022-08-18T04:16:24.434Z,18.90
2022-08-18T04:17:25.126Z,19.00
2022-08-18T04:18:25.135Z,18.40
2022-08-18T04:19:26.681Z,16.80
2022-08-18T04:20:24.325Z,19.30
2022-08-18T04:21:25.096Z,20.00
2022-08-18T04:22:24.315Z,21.40
2022-08-18T04:23:24.296Z,20.00
2022-08-18T04:24:24.274Z,18.40
2022-08-18T04:25:24.268Z,18.90
2022-08-18T04:26:24.246Z,18.10
2022-08-18T04:27:24.255Z,17.90
2022-08-18T04:28:24.245Z,17.70
2022-08-18T04:29:24.225Z,18.10
2022-08-18T04:30:25.005Z,18.50
2022-08-18T04:31:24.214Z,19.70
2022-08-18T04:32:24.275Z,17.10
2022-08-18T04:33:25.164Z,17.40
2022-08-18T04:34:24.140Z,18.00
2022-08-18T04:35:24.895Z,17.80
2022-08-18T04:36:24.118Z,17.10
2022-08-18T04:37:24.115Z,17.50
2022-08-18T04:38:25.006Z,17.30
2022-08-18T04:39:24.100Z,18.00
2022-08-18T04:40:25.418Z,19.00
2022-08-18T04:41:24.838Z,18.40
2022-08-18T04:42:24.105Z,19.10
2022-08-18T04:43:24.799Z,18.20
2022-08-18T04:44:24.034Z,19.10
2022-08-18T04:45:24.035Z,18.20
2022-08-18T04:46:24.534Z,19.20
2022-08-18T04:47:24.014Z,18.90
2022-08-18T04:48:23.995Z,17.90
2022-08-18T04:49:23.985Z,17.30
2022-08-18T04:50:24.874Z,17.80
2022-08-18T04:52:26.686Z,18.30
2022-08-18T04:52:40.737Z,19.80
2022-08-18T04:53:24.938Z,19.90
2022-08-18T04:54:24.125Z,20.80
2022-08-18T04:55:23.925Z,21.50
2022-08-18T04:56:24.135Z,20.20
2022-08-18T04:57:24.576Z,20.20
2022-08-18T04:58:23.877Z,19.70
2022-08-18T04:59:23.889Z,20.30
2022-08-18T05:00:23.965Z,19.00
2022-08-18T05:01:24.612Z,18.00
2022-08-18T05:02:24.611Z,19.90
2022-08-18T05:03:24.518Z,22.10
2022-08-18T05:04:23.818Z,23.00
2022-08-18T05:05:23.806Z,21.10
2022-08-18T05:06:24.617Z,22.30
2022-08-18T05:07:24.527Z,22.10
2022-08-18T05:08:24.545Z,22.30
2022-08-18T05:09:24.450Z,23.00
2022-08-18T05:10:23.745Z,20.30
2022-08-18T05:11:23.745Z,20.30
2022-08-18T05:12:25.933Z,21.20
2022-08-18T05:13:23.745Z,21.00
2022-08-18T05:14:23.725Z,21.90
2022-08-18T05:15:23.703Z,22.20
2022-08-18T05:16:27.212Z,21.90
2022-08-18T05:17:23.676Z,20.60
2022-08-18T05:18:23.693Z,22.20
2022-08-18T05:19:26.674Z,23.10
2022-08-18T05:20:24.095Z,21.50
2022-08-18T05:21:24.636Z,21.90
2022-08-18T05:22:30.369Z,21.70
2022-08-18T05:23:24.625Z,22.40
2022-08-18T05:24:24.115Z,22.20
2022-08-18T05:25:24.338Z,21.00
2022-08-18T05:26:24.496Z,21.70
2022-08-18T05:27:23.565Z,23.20
2022-08-18T05:28:23.546Z,23.00
2022-08-18T05:29:23.545Z,22.30
2022-08-18T05:30:23.677Z,22.30
2022-08-18T05:31:23.543Z,23.00
2022-08-18T05:32:40.866Z,20.60
2022-08-18T05:33:24.506Z,22.80
2022-08-18T05:34:23.975Z,23.70
2022-08-18T05:35:23.899Z,23.70
2022-08-18T05:36:23.996Z,21.60
2022-08-18T05:37:23.458Z,21.90
2022-08-18T05:38:23.438Z,21.00
2022-08-18T05:39:23.442Z,21.80
2022-08-18T05:40:23.456Z,21.40
2022-08-18T05:41:24.193Z,21.20
2022-08-18T05:42:23.643Z,20.40
2022-08-18T05:43:23.513Z,21.00
2022-08-18T05:44:23.356Z,20.70
2022-08-18T05:45:23.388Z,20.00
2022-08-18T05:46:23.356Z,21.30
2022-08-18T05:47:23.356Z,21.40
2022-08-18T05:48:23.329Z,21.40
2022-08-18T05:49:23.355Z,22.20
2022-08-18T05:50:23.296Z,23.10
2022-08-18T05:51:23.295Z,23.00
2022-08-18T05:52:24.046Z,23.90
2022-08-18T05:53:23.278Z,25.50
2022-08-18T05:54:23.285Z,24.80
2022-08-18T05:55:23.246Z,25.10
2022-08-18T05:56:23.224Z,24.50
2022-08-18T05:57:23.425Z,24.70
2022-08-18T05:58:23.225Z,22.90
2022-08-18T05:59:23.236Z,22.00
2022-08-18T06:00:23.176Z,21.20
2022-08-18T06:01:23.186Z,24.20
2022-08-18T06:02:23.173Z,25.00
2022-08-18T06:03:23.946Z,20.20
2022-08-18T06:04:23.216Z,21.00
2022-08-18T06:05:23.128Z,25.30
2022-08-18T06:06:23.127Z,25.40
2022-08-18T06:07:23.186Z,26.80
2022-08-18T06:08:23.155Z,25.30
2022-08-18T06:09:23.187Z,26.70
2022-08-18T06:10:23.066Z,26.70
2022-08-18T06:11:23.150Z,25.20
2022-08-18T06:12:23.076Z,24.80
2022-08-18T06:13:23.181Z,26.80
2022-08-18T06:14:23.361Z,27.50
2022-08-18T06:15:24.036Z,27.70
2022-08-18T06:16:22.996Z,26.30
2022-08-18T06:17:23.007Z,25.10
2022-08-18T06:18:22.978Z,26.70
2022-08-18T06:19:22.976Z,26.80
2022-08-18T06:20:22.959Z,26.40
2022-08-18T06:21:23.176Z,25.20
2022-08-18T06:22:22.934Z,26.00
2022-08-18T06:23:22.998Z,26.80
2022-08-18T06:24:22.998Z,26.10
2022-08-18T06:25:22.978Z,25.70
2022-08-18T06:26:22.889Z,25.00
2022-08-18T06:27:22.926Z,24.70
2022-08-18T06:28:22.867Z,23.60
2022-08-18T06:29:22.866Z,24.10
2022-08-18T06:30:22.847Z,24.90
2022-08-18T06:31:29.216Z,23.90
2022-08-18T06:32:23.825Z,23.10
2022-08-18T06:33:22.816Z,21.80
2022-08-18T06:34:22.812Z,24.30
2022-08-18T06:35:22.799Z,24.70
2022-08-18T06:36:23.520Z,24.60
2022-08-18T06:37:22.797Z,24.40
2022-08-18T06:38:22.765Z,24.50
2022-08-18T06:39:22.747Z,26.20
2022-08-18T06:40:22.871Z,24.90
2022-08-18T06:41:40.746Z,25.60
2022-08-18T06:42:23.783Z,25.70
2022-08-18T06:43:22.707Z,25.60
2022-08-18T06:44:22.688Z,25.50
2022-08-18T06:45:22.697Z,23.30
2022-08-18T06:46:23.658Z,25.20
2022-08-18T06:47:22.667Z,25.30
2022-08-18T06:48:22.638Z,25.80
2022-08-18T06:49:22.649Z,26.70
2022-08-18T06:50:22.620Z,24.30
2022-08-18T06:51:22.618Z,25.70
2022-08-18T06:52:22.598Z,26.10
2022-08-18T06:53:27.156Z,27.10
2022-08-18T06:54:24.497Z,25.50
2022-08-18T06:55:22.568Z,26.40
2022-08-18T06:56:26.678Z,25.00
2022-08-18T06:57:22.549Z,26.00
2022-08-18T06:58:22.528Z,26.70
2022-08-18T06:59:22.530Z,24.40
2022-08-18T07:00:22.520Z,22.70
2022-08-18T07:01:22.537Z,24.90
2022-08-18T07:02:22.498Z,26.40
2022-08-18T07:03:22.497Z,27.90
2022-08-18T07:04:22.858Z,26.40
2022-08-18T07:05:22.440Z,26.60
2022-08-18T07:06:22.451Z,28.60
2022-08-18T07:07:22.459Z,29.20
2022-08-18T07:08:22.428Z,29.30
2022-08-18T07:09:22.412Z,30.20
2022-08-18T07:10:22.398Z,31.50
2022-08-18T07:11:22.381Z,28.20
2022-08-18T07:12:22.399Z,31.00
2022-08-18T07:13:22.369Z,32.80
2022-08-18T07:14:22.382Z,31.70
2022-08-18T07:15:22.348Z,30.30
2022-08-18T07:16:40.354Z,30.20
2022-08-18T07:17:23.318Z,24.20
2022-08-18T07:18:23.314Z,27.10
2022-08-18T07:19:22.291Z,29.90
2022-08-18T07:20:22.291Z,29.30
2022-08-18T07:21:22.260Z,30.50
2022-08-18T07:22:22.268Z,29.40
2022-08-18T07:23:23.288Z,31.00
2022-08-18T07:24:25.378Z,29.40
2022-08-18T07:25:22.379Z,23.80
2022-08-18T07:26:22.226Z,27.60
2022-08-18T07:27:22.189Z,28.30
2022-08-18T07:28:22.199Z,19.80
2022-08-18T07:29:22.171Z,26.50
2022-08-18T07:30:22.179Z,25.70
2022-08-18T07:31:22.149Z,28.40
2022-08-18T07:32:22.156Z,27.60
2022-08-18T07:33:22.129Z,28.80
2022-08-18T07:34:22.127Z,24.10
2022-08-18T07:35:22.100Z,30.20
2022-08-18T07:36:22.110Z,30.80
2022-08-18T07:37:27.922Z,29.50
2022-08-18T07:39:23.102Z,30.00
2022-08-18T07:40:22.062Z,32.10
2022-08-18T07:41:22.042Z,21.90
2022-08-18T07:42:37.345Z,28.30
2022-08-18T07:43:23.969Z,26.50
2022-08-18T07:44:22.010Z,32.10
2022-08-18T07:45:23.953Z,28.20
2022-08-18T07:46:21.991Z,22.30
2022-08-18T07:47:21.971Z,32.50
2022-08-18T07:48:39.683Z,29.60
2022-08-18T07:49:22.943Z,21.10
2022-08-18T07:50:42.135Z,32.90
2022-08-18T07:51:22.914Z,22.70
2022-08-18T07:52:36.263Z,23.70
2022-08-18T07:53:22.973Z,29.10
2022-08-18T07:54:47.718Z,23.40
2022-08-18T07:55:22.871Z,23.10
2022-08-18T07:56:21.879Z,25.20
2022-08-18T07:57:21.850Z,19.80
2022-08-18T07:58:21.851Z,20.00
2022-08-18T07:59:21.848Z,20.00
2022-08-18T08:00:40.947Z,24.50
2022-08-18T08:01:22.842Z,26.70
2022-08-18T08:02:21.810Z,26.00
2022-08-18T08:03:21.782Z,23.30
2022-08-18T08:04:25.688Z,31.70
2022-08-18T08:05:21.760Z,32.50
2022-08-18T08:06:21.766Z,28.50
2022-08-18T08:07:25.501Z,31.40
2022-08-18T08:08:25.105Z,34.00
2022-08-18T08:09:21.717Z,27.70
2022-08-18T08:10:21.821Z,25.60
2022-08-18T08:11:21.692Z,34.90
2022-08-18T08:12:21.696Z,26.60
2022-08-18T08:13:43.702Z,35.60
2022-08-18T08:14:26.320Z,31.50
2022-08-18T08:15:27.100Z,32.60
2022-08-18T08:16:22.650Z,35.00
2022-08-18T08:17:21.651Z,32.40
2022-08-18T08:18:21.631Z,29.80
2022-08-18T08:19:36.516Z,31.10
2022-08-18T08:20:22.602Z,29.40
2022-08-18T08:21:21.588Z,26.50
2022-08-18T08:22:21.582Z,26.70
2022-08-18T08:23:21.552Z,24.70
2022-08-18T08:24:21.568Z,26.40
2022-08-18T08:25:45.323Z,21.40
2022-08-18T08:26:22.583Z,25.00
2022-08-18T08:27:21.513Z,22.50
2022-08-18T08:28:21.512Z,24.40
2022-08-18T08:29:21.495Z,23.90
2022-08-18T08:30:21.546Z,23.20
2022-08-18T08:31:38.005Z,24.40
2022-08-18T08:32:22.517Z,24.40
2022-08-18T08:33:21.534Z,19.10
2022-08-18T08:34:21.452Z,24.90
2022-08-18T08:35:49.687Z,17.30
2022-08-18T08:36:22.432Z,19.10
2022-08-18T08:37:21.414Z,23.20
2022-08-18T08:38:42.966Z,19.10
2022-08-18T08:39:22.376Z,24.00
2022-08-18T08:40:21.485Z,24.10
2022-08-18T08:41:21.370Z,24.30
2022-08-18T08:42:32.126Z,22.70
2022-08-18T08:43:22.424Z,23.50
2022-08-18T08:44:21.342Z,22.90
2022-08-18T08:45:21.404Z,22.40
2022-08-18T08:46:21.323Z,20.90
2022-08-18T08:47:22.938Z,19.10
2022-08-18T08:48:21.304Z,22.10
2022-08-18T08:49:21.264Z,20.70
2022-08-18T08:50:21.264Z,15.90
2022-08-18T08:51:21.244Z,15.20
2022-08-18T08:52:21.244Z,18.30
2022-08-18T08:53:21.237Z,23.10
2022-08-18T08:54:21.233Z,22.40
2022-08-18T08:55:21.196Z,21.50
2022-08-18T08:56:21.195Z,23.30
2022-08-18T08:57:21.173Z,17.90
2022-08-18T08:58:21.183Z,23.80
2022-08-18T08:59:21.154Z,14.50
2022-08-18T09:00:21.154Z,17.50
2022-08-18T09:01:21.168Z,19.90
2022-08-18T09:02:44.774Z,15.00
2022-08-18T09:03:29.996Z,21.60
2022-08-18T09:04:22.106Z,22.40
2022-08-18T09:05:21.084Z,20.50
2022-08-18T09:06:21.105Z,20.90
2022-08-18T09:07:21.825Z,20.50
2022-08-18T09:08:21.066Z,22.10
2022-08-18T09:09:21.192Z,21.50
2022-08-18T09:10:21.208Z,19.60
2022-08-18T09:11:21.018Z,19.00
2022-08-18T09:12:21.176Z,17.00
2022-08-18T09:13:23.321Z,14.20
2022-08-18T09:14:21.999Z,16.00
2022-08-18T09:15:21.006Z,20.10
2022-08-18T09:16:21.011Z,14.90
2022-08-18T09:17:20.946Z,20.30
2022-08-18T09:18:20.957Z,20.20
2022-08-18T09:19:20.926Z,22.30
2022-08-18T09:20:20.938Z,18.50
2022-08-18T09:21:21.647Z,18.80
2022-08-18T09:22:20.906Z,17.90
2022-08-18T09:23:20.877Z,17.70
2022-08-18T09:24:20.887Z,12.40
2022-08-18T09:25:20.857Z,14.00
2022-08-18T09:26:21.678Z,15.10
2022-08-18T09:27:20.949Z,17.70
2022-08-18T09:28:20.848Z,15.80
2022-08-18T09:29:20.811Z,16.10
2022-08-18T09:30:20.818Z,18.40
2022-08-18T09:31:20.786Z,17.80
2022-08-18T09:32:23.042Z,18.90
2022-08-18T09:33:20.779Z,14.60
2022-08-18T09:34:20.768Z,17.70
2022-08-18T09:36:21.749Z,19.60
2022-08-18T09:38:21.718Z,18.80
2022-08-18T09:39:23.242Z,19.80
2022-08-18T09:40:33.370Z,18.20
2022-08-18T09:41:21.729Z,18.80
2022-08-18T09:42:20.679Z,18.70
2022-08-18T09:43:21.668Z,17.90
2022-08-18T09:44:26.637Z,17.30
2022-08-18T09:45:21.619Z,16.00
2022-08-18T09:46:20.629Z,17.60
2022-08-18T09:47:20.609Z,15.60
2022-08-18T09:48:25.335Z,19.30
2022-08-18T09:49:21.710Z,17.30
2022-08-18T09:51:23.265Z,15.10
2022-08-18T09:52:20.569Z,17.40
2022-08-18T09:53:20.541Z,15.80
2022-08-18T09:54:21.314Z,17.10
2022-08-18T09:55:20.521Z,16.50
2022-08-18T09:56:28.670Z,18.00
2022-08-18T09:57:21.507Z,16.00
2022-08-18T09:59:22.212Z,17.70
2022-08-18T10:00:24.431Z,16.10
2022-08-18T10:01:21.504Z,17.30
2022-08-18T10:02:28.107Z,16.60
2022-08-18T10:03:25.943Z,15.40
2022-08-18T10:05:22.512Z,16.60
2022-08-18T10:06:20.704Z,13.00
2022-08-18T10:07:20.386Z,19.70
2022-08-18T10:08:24.003Z,17.40
2022-08-18T10:09:36.267Z,18.40
2022-08-18T10:11:22.063Z,11.10
2022-08-18T10:12:20.360Z,16.50
2022-08-18T10:13:21.560Z,13.40
2022-08-18T10:14:21.163Z,14.70
2022-08-18T10:16:21.320Z,12.20
2022-08-18T10:17:23.525Z,16.20
2022-08-18T10:18:20.292Z,15.60
2022-08-18T10:19:23.183Z,12.10
2022-08-18T10:20:26.034Z,17.20
2022-08-18T10:21:24.421Z,18.00
2022-08-18T10:22:20.224Z,12.80
2022-08-18T10:23:21.196Z,9.70
2022-08-18T10:24:36.971Z,17.10
2022-08-18T10:25:23.053Z,14.00
2022-08-18T10:26:21.037Z,12.80
2022-08-18T10:27:20.172Z,12.40
2022-08-18T10:28:20.183Z,13.20
2022-08-18T10:29:20.145Z,14.00
2022-08-18T10:30:20.132Z,16.60
2022-08-18T10:31:24.124Z,15.50
2022-08-18T10:32:21.996Z,15.60
2022-08-18T10:33:20.093Z,16.30
2022-08-18T10:34:20.093Z,15.30
2022-08-18T10:35:20.591Z,16.50
2022-08-18T10:36:20.061Z,13.60
2022-08-18T10:37:20.090Z,11.10
2022-08-18T10:38:21.080Z,13.70
2022-08-18T10:39:20.023Z,15.30
2022-08-18T10:41:21.001Z,10.70
2022-08-18T10:42:20.007Z,12.10
2022-08-18T10:43:41.459Z,15.80
2022-08-18T10:44:29.236Z,15.20
2022-08-18T10:45:23.799Z,13.30
2022-08-18T10:46:30.601Z,15.30
2022-08-18T10:47:20.925Z,14.30
2022-08-18T10:48:20.714Z,13.40
2022-08-18T10:49:19.916Z,14.30
2022-08-18T10:50:19.926Z,13.90
2022-08-18T10:52:21.174Z,10.20
2022-08-18T10:54:20.880Z,11.90
2022-08-18T10:55:19.857Z,11.30
2022-08-18T10:56:22.557Z,13.60
2022-08-18T10:57:21.177Z,11.80
2022-08-18T10:58:19.826Z,10.50
2022-08-18T10:59:20.026Z,14.00
2022-08-18T11:00:20.809Z,12.30
2022-08-18T11:01:19.785Z,10.60
2022-08-18T11:02:19.793Z,12.50
2022-08-18T11:03:50.578Z,11.70
2022-08-18T11:04:32.828Z,13.90
2022-08-18T11:05:20.994Z,12.70
2022-08-18T11:06:21.579Z,12.60
2022-08-18T11:07:20.091Z,12.80
2022-08-18T11:08:20.591Z,11.90
2022-08-18T11:09:20.499Z,13.80
2022-08-18T11:10:57.676Z,14.90
2022-08-18T11:11:36.280Z,12.10
2022-08-18T11:12:20.679Z,11.30
2022-08-18T11:13:20.127Z,12.60
2022-08-18T11:14:20.138Z,14.00
2022-08-18T11:15:22.421Z,14.10
2022-08-18T11:16:20.331Z,15.30
2022-08-18T11:17:19.609Z,13.80
2022-08-18T11:18:19.590Z,13.30
2022-08-18T11:19:19.597Z,12.60
2022-08-18T11:20:19.574Z,14.10
2022-08-18T11:21:20.369Z,13.50
2022-08-18T11:23:21.490Z,14.10
2022-08-18T11:24:19.583Z,13.50
2022-08-18T11:25:19.599Z,13.30
2022-08-18T11:26:19.622Z,13.90
2022-08-18T11:27:20.162Z,12.70
2022-08-18T11:28:19.619Z,13.00
2022-08-18T11:29:19.468Z,11.20
2022-08-18T11:30:19.479Z,10.50
2022-08-18T11:31:19.462Z,9.90
2022-08-18T11:32:20.212Z,13.50
2022-08-18T11:33:23.067Z,12.80
2022-08-18T11:34:19.943Z,14.30
2022-08-18T11:35:19.398Z,12.90
2022-08-18T11:36:19.400Z,13.70
2022-08-18T11:37:19.379Z,11.50
2022-08-18T11:38:20.964Z,11.20
2022-08-18T11:39:22.364Z,13.40
2022-08-18T11:41:20.408Z,14.60
2022-08-18T11:42:21.967Z,13.30
2022-08-18T11:43:21.379Z,14.20
2022-08-18T11:44:20.063Z,13.70
2022-08-18T11:45:19.782Z,10.80
2022-08-18T11:47:20.281Z,12.10
2022-08-18T11:48:25.075Z,12.20
2022-08-18T11:49:26.183Z,10.50
2022-08-18T11:50:21.021Z,13.90
2022-08-18T11:51:23.527Z,13.20
2022-08-18T11:52:19.581Z,11.90
2022-08-18T11:53:20.242Z,11.80
2022-08-18T11:54:19.873Z,11.70
2022-08-18T11:55:24.177Z,11.40
2022-08-18T11:56:20.963Z,12.60
2022-08-18T11:57:21.005Z,11.50
2022-08-18T11:58:19.889Z,11.40
2022-08-18T11:59:20.042Z,11.50
2022-08-18T12:00:22.825Z,11.20
2022-08-18T12:01:20.134Z,10.00
2022-08-18T12:02:19.125Z,10.90
2022-08-18T12:03:19.252Z,9.50
2022-08-18T12:04:19.063Z,10.80
2022-08-18T12:05:19.084Z,11.40
2022-08-18T12:06:20.025Z,8.80
2022-08-18T12:08:50.590Z,12.20
2022-08-18T12:10:25.760Z,8.80
2022-08-18T12:11:26.836Z,9.60
2022-08-18T12:12:20.223Z,9.80
2022-08-18T12:13:19.210Z,12.20
2022-08-18T12:14:32.184Z,10.80
2022-08-18T12:15:24.676Z,11.60
2022-08-18T12:16:18.936Z,10.20
2022-08-18T12:17:18.945Z,9.50
2022-08-18T12:18:28.459Z,9.70
2022-08-18T12:20:19.885Z,9.20
2022-08-18T12:21:18.886Z,11.50
2022-08-18T12:22:19.638Z,11.10
2022-08-18T12:23:19.267Z,9.20
2022-08-18T12:24:18.849Z,9.80
2022-08-18T12:25:25.477Z,7.60
2022-08-18T12:26:37.968Z,11.10
2022-08-18T12:27:21.577Z,9.50
2022-08-18T12:28:18.809Z,9.00
2022-08-18T12:29:18.797Z,10.10
2022-08-18T12:30:18.778Z,10.00
2022-08-18T12:31:18.829Z,10.70
2022-08-18T12:32:56.367Z,9.90
2022-08-18T12:33:25.475Z,10.50
2022-08-18T12:34:25.108Z,9.20
2022-08-18T12:35:22.082Z,9.40
2022-08-18T12:36:19.024Z,10.90
2022-08-18T12:37:57.057Z,10.50
2022-08-18T12:38:20.649Z,10.30
2022-08-18T12:39:18.688Z,10.50
2022-08-18T12:40:18.761Z,8.60
2022-08-18T12:41:23.522Z,7.80
2022-08-18T12:42:19.909Z,8.10
2022-08-18T12:43:18.648Z,8.90
2022-08-18T12:44:18.628Z,10.20
2022-08-18T12:45:18.660Z,10.10
2022-08-18T12:46:18.629Z,9.70
2022-08-18T12:47:18.609Z,10.00
2022-08-18T12:48:18.719Z,10.40
2022-08-18T12:49:18.578Z,8.70
2022-08-18T12:50:18.559Z,10.30
2022-08-18T12:51:18.605Z,10.40
2022-08-18T12:52:19.659Z,9.60
2022-08-18T12:53:18.553Z,9.30
2022-08-18T12:54:20.406Z,9.50
2022-08-18T12:55:22.089Z,11.20
2022-08-18T12:56:19.813Z,10.80
2022-08-18T12:57:27.695Z,9.60
2022-08-18T12:58:19.839Z,10.40
2022-08-18T12:59:18.474Z,11.80
2022-08-18T13:00:18.860Z,10.80
2022-08-18T13:01:19.194Z,10.00
2022-08-18T13:02:18.424Z,11.40
2022-08-18T13:03:18.447Z,10.60
2022-08-18T13:04:18.596Z,9.20
2022-08-18T13:05:18.410Z,8.90
2022-08-18T13:06:19.392Z,10.50
2022-08-18T13:07:19.051Z,10.40
2022-08-18T13:08:30.799Z,8.80
2022-08-18T13:09:34.247Z,10.20
2022-08-18T13:10:21.752Z,11.40
2022-08-18T13:11:23.533Z,9.70
2022-08-18T13:12:19.379Z,9.90